WetterOnline ( https://www.wetteronline.de )

Wetter aktuell Kempten/Allgäu

Aktuelles Wetter: Kempten (705m)

6-stündlich | Neueste Meldungen
Ortszeit Temperatur Wetter
Mo, 14.10. 14:00 17.2° C bedeckt
Mo, 14.10. 8:00 6.3° C wolkenlos
Mo, 14.10. 2:00 10.4° C wolkenlos
So, 13.10. 20:00 13.3° C fast wolkenlos
So, 13.10. 14:00 21.8° C wolkig
So, 13.10. 8:00 7.1° C wolkig
So, 13.10. 2:00 9.5° C fast wolkenlos
Sa, 12.10. 20:00 12.0° C wolkig
Ortszeit Temperatur Wetter
Mo, 14.10. 15:00 19.7° C leicht bewölkt
Mo, 14.10. 14:50 19.7° C leicht bewölkt
Mo, 14.10. 14:40 19.2° C leicht bewölkt
Mo, 14.10. 14:30 17.8° C bewölkt
Mo, 14.10. 14:20 17.8° C bewölkt
Mo, 14.10. 14:10 17.3° C bewölkt
Mo, 14.10. 14:00 17.2° C bedeckt
Mo, 14.10. 13:30 17.7° C bedeckt
Mo, 14.10. 13:00 18.6° C bewölkt
Mo, 14.10. 12:30 19.6° C wolkenlos
Mo, 14.10. 12:00 19.3° C wolkenlos
Ortszeit Relative Feuchte Sichtweite
Mo, 14.10. 14:00 68% 50 km
Mo, 14.10. 8:00 95% 27 km
Mo, 14.10. 2:00 87% 35 km
So, 13.10. 20:00 89% 30 km
So, 13.10. 14:00 45% 45 km
So, 13.10. 8:00 93% 30 km
So, 13.10. 2:00 88% 35 km
Sa, 12.10. 20:00 83% 25 km
Ortszeit Relative Feuchte Sichtweite
Mo, 14.10. 15:00 52% 23 km
Mo, 14.10. 14:50 52% -
Mo, 14.10. 14:40 57% -
Mo, 14.10. 14:30 67% 50 km
Mo, 14.10. 14:20 67% -
Mo, 14.10. 14:10 70% -
Mo, 14.10. 14:00 68% 50 km
Mo, 14.10. 13:30 65% 45 km
Mo, 14.10. 13:00 58% 40 km
Mo, 14.10. 12:30 50% 35 km
Mo, 14.10. 12:00 55% 30 km
Ortszeit Niederschlagsmenge Niederschlagsart
Mo, 14.10. 14:00 0.0 l/m2 in 6 Std. -
Mo, 14.10. 8:00 0.0 l/m2 in 12 Std. -
Mo, 14.10. 2:00 0.0 l/m2 in 6 Std. -
So, 13.10. 20:00 0.0 l/m2 in 12 Std. -
So, 13.10. 14:00 0.0 l/m2 in 6 Std. -
So, 13.10. 8:00 0.0 l/m2 in 12 Std. -
So, 13.10. 2:00 0.0 l/m2 in 6 Std. -
Sa, 12.10. 20:00 0.0 l/m2 in 12 Std. -
Ortszeit Niederschlagsmenge Niederschlagsart
Mo, 14.10. 15:00 0.0 l/m2 in 1 Std. -
Mo, 14.10. 14:50 keine Meldung -
Mo, 14.10. 14:40 keine Meldung -
Mo, 14.10. 14:30 0.0 l/m2 in 1 Std. -
Mo, 14.10. 14:20 keine Meldung -
Mo, 14.10. 14:10 keine Meldung -
Mo, 14.10. 14:00 0.0 l/m2 in 1 Std. -
Mo, 14.10. 13:30 0.0 l/m2 in 1 Std. -
Mo, 14.10. 13:00 0.0 l/m2 in 1 Std. -
Mo, 14.10. 12:30 0.0 l/m2 in 1 Std. -
Mo, 14.10. 12:00 0.0 l/m2 in 1 Std. -
Ortszeit Stärke Spitze Richtung
km/h Bft. km/h Grad Sektor
Mo, 14.10. 14:00 4 1 14 120° SO
Mo, 14.10. 8:00 7 2 14 110° O
Mo, 14.10. 2:00 9 2 17 120° SO
So, 13.10. 20:00 7 2 14 130° SO
So, 13.10. 14:00 4 1 11 350° N
So, 13.10. 8:00 6 1 17 120° SO
So, 13.10. 2:00 7 2 18 130° SO
Sa, 12.10. 20:00 4 1 22 120° SO
Ortszeit Stärke Spitze Richtung
km/h Bft. km/h Grad Sektor
Mo, 14.10. 15:00 4 1 11 180° S
Mo, 14.10. 14:50 4 1 - 180° S
Mo, 14.10. 14:40 4 1 - 140° SO
Mo, 14.10. 14:30 4 1 7 120° SO
Mo, 14.10. 14:20 4 1 - 120° SO
Mo, 14.10. 14:10 4 1 - 110° O
Mo, 14.10. 14:00 4 1 11 120° SO
Mo, 14.10. 13:30 4 1 11 150° SO
Mo, 14.10. 13:00 4 1 7 210° SW
Mo, 14.10. 12:30 4 1 7 240° SW
Mo, 14.10. 12:00 2 1 7 220° SW
Ortszeit Untergrenze Bedeckung Gattung
total tief tief mittel hoch
Mo, 14.10. 14:00 4200 m 8/8 8/8 - - -
Mo, 14.10. 8:00 - 0/8 0/8 - - -
Mo, 14.10. 2:00 - 0/8 0/8 - - -
So, 13.10. 20:00 5700 m 1/8 1/8 - - -
So, 13.10. 14:00 4500 m 8/8 8/8 - - -
So, 13.10. 8:00 7200 m 7/8 0/8 - - -
So, 13.10. 2:00 3900 m 1/8 1/8 - - -
Sa, 12.10. 20:00 3300 m 7/8 5/8 - - -
Ortszeit Bedeckungsgrad in Achtel und Wolkenuntergrenze
Mo, 14.10. 15:00 2(4800m)
Mo, 14.10. 14:50 2(4800m)
Mo, 14.10. 14:40 2(4500m)
Mo, 14.10. 14:30 7(4500m) 7(5100m)
Mo, 14.10. 14:20 7(4500m) 7(5100m)
Mo, 14.10. 14:10 6(4500m) 7(5100m) 7(6000m)
Mo, 14.10. 14:00 8(4200m) 8(6000m) 8(6000m)
Mo, 14.10. 13:30 8(4200m) 8(6300m)
Mo, 14.10. 13:00 6(4800m) 7(5400m)
Mo, 14.10. 12:30 2(5400m)
Mo, 14.10. 12:00 keine Wolken
Ortszeit Luftdruck NN (hPa) Tendenz (hPa in 3 Std.)
Mo, 14.10. 14:00 1014 - 1,0
Mo, 14.10. 8:00 1019 - 0,4
Mo, 14.10. 2:00 1019 + 0,2
So, 13.10. 20:00 1017 + 0,3
So, 13.10. 14:00 1015 - 0,5
So, 13.10. 8:00 1020 - 0,1
So, 13.10. 2:00 1019 - 0,4
Sa, 12.10. 20:00 1019 + 1,1
Ortszeit Luftdruck NN (hPa) Tendenz (hPa in 3 Std.)
Mo, 14.10. 15:00 1013 - 0,9
Mo, 14.10. 14:50 1013 keine Meldung
Mo, 14.10. 14:40 1013 keine Meldung
Mo, 14.10. 14:30 1014 - 0,9
Mo, 14.10. 14:20 1014 keine Meldung
Mo, 14.10. 14:10 1014 keine Meldung
Mo, 14.10. 14:00 1014 - 1,0
Mo, 14.10. 13:30 1014 - 1,0
Mo, 14.10. 13:00 1014 - 1,3
Mo, 14.10. 12:30 1014 - 1,4
Mo, 14.10. 12:00 1014 - 1,5
Ortszeit Schneehöhe (cm)
Mo, 14.10. 14:00 0
Mo, 14.10. 8:00 0
Mo, 14.10. 2:00 0
So, 13.10. 20:00 0
So, 13.10. 14:00 0
So, 13.10. 8:00 0
So, 13.10. 2:00 0
Sa, 12.10. 20:00 0
Ortszeit Schneehöhe (cm)
Mo, 14.10. 15:00 0
Mo, 14.10. 14:50 0
Mo, 14.10. 14:40 0
Mo, 14.10. 14:30 0
Mo, 14.10. 14:20 0
Mo, 14.10. 14:10 0
Mo, 14.10. 14:00 0
Mo, 14.10. 13:30 0
Mo, 14.10. 13:00 0
Mo, 14.10. 12:30 0
Mo, 14.10. 12:00 0
Link zu dieser Seite / Seite empfehlen

Das Wetter in ...